Panda — H8NH — position and weather

sailwx.info

Track history (hours):
 
Tides and Currents Weather Stations Pressure Air Temp Water Temp Dewpoint Dewpoint Depression Visibility Wind Speed Wind Dir Waves Ship Positions

Panda

Last reported at 2018-Jun-22 01:30 UTC. Time now 2018-Jun-22 01:52 UTC.
Position N 42°01' E 029°30'.

Length 171 m; draft 5.2 m.

Type: Cargo ship. MMSI: 352528000.

Date/timePositionNaut miles runAvg speedWind from/ knotsBaromVisibWave heightAir tempDewpointWater temp
2018-Jun-22 01:30N 42°01' E 029°30'611.6
2018-Jun-22 01:00N 41°55' E 029°28'611.6
2018-Jun-22 00:30N 41°49' E 029°25'611.6
2018-Jun-22 00:00N 41°44' E 029°23'611.7
2018-Jun-21 23:30N 41°38' E 029°21'712.0
2018-Jun-21 22:57N 41°32' E 029°19'511.9
2018-Jun-21 22:29N 41°27' E 029°17'611.6
2018-Jun-21 22:00N 41°21' E 029°15'611.8
2018-Jun-21 21:30N 41°16' E 029°11'910.7
2018-Jun-21 20:38N 41°09' E 029°04'1 9.9
2018-Jun-21 20:30N 41°07' E 029°05'24 5.1
2018-Jun-21 15:49N 40°45' E 028°54'0 0.4
2018-Jun-21 15:27N 40°45' E 028°54'241 6.0
2018-Jun-19 23:07N 37°31' E 025°50'111.8
2018-Jun-19 23:01N 37°29' E 025°50'612.3
2018-Jun-19 22:31N 37°24' E 025°54'  
2018-Jun-16 00:19N 31°08' E 029°48'  
Track history (hours):
 
Tides and Currents Weather Stations Pressure Air Temp Water Temp Dewpoint Dewpoint Depression Visibility Wind Speed Wind Dir Waves Ship Positions

Panda

Last reported at 2018-Jun-22 01:30 UTC. Time now 2018-Jun-22 01:52 UTC.
Position N 42°01' E 029°30'.

Length 171 m; draft 5.2 m.

Type: Cargo ship. MMSI: 352528000.

Date/timePositionNaut miles runAvg speedWind from/ knotsBaromVisibWave heightAir tempDewpointWater temp
2018-Jun-22 01:30N 42°01' E 029°30'611.6
2018-Jun-22 01:00N 41°55' E 029°28'611.6
2018-Jun-22 00:30N 41°49' E 029°25'611.6
2018-Jun-22 00:00N 41°44' E 029°23'611.7
2018-Jun-21 23:30N 41°38' E 029°21'712.0
2018-Jun-21 22:57N 41°32' E 029°19'511.9
2018-Jun-21 22:29N 41°27' E 029°17'611.6
2018-Jun-21 22:00N 41°21' E 029°15'611.8
2018-Jun-21 21:30N 41°16' E 029°11'910.7
2018-Jun-21 20:38N 41°09' E 029°04'1 9.9
2018-Jun-21 20:30N 41°07' E 029°05'24 5.1
2018-Jun-21 15:49N 40°45' E 028°54'0 0.4
2018-Jun-21 15:27N 40°45' E 028°54'241 6.0
2018-Jun-19 23:07N 37°31' E 025°50'111.8
2018-Jun-19 23:01N 37°29' E 025°50'612.3
2018-Jun-19 22:31N 37°24' E 025°54'  
2018-Jun-16 00:19N 31°08' E 029°48'  

Dump ship's entire track history